CEB905 RPLL-RPVE
Flight info
| Callsign | CEB905 |
|---|---|
| Flight time | 0h 34m |
| Altitude | 23000 |
| Route | RPLL/31 HARBO1 HARBO DCT VERDE W24 TAPER TAPER7A RPVE/06 |
| Aircraft | A20N/M-SDE2E3FGHIRWXY/LB1 |
Departure
| Time | 2026-04-24 10:15 |
|---|---|
| Airport | Ninoy Aquino International Airport (RPLL) |
Arrival
| Time | 2026-04-24 10:50 |
|---|---|
| Airport | Godofredo P. Ramos Airport (RPVE) |
| Time | Latitude | Longitude | Altitude | Speed | Heading |
|---|---|---|---|---|---|
| 2026-04-24 09:43 | 14.51652 | 121.01714 | 84 ft | 0 kts | 225° |
| 2026-04-24 09:58 | 14.51657 | 121.01720 | 84 ft | 2 kts | 225° |
| 2026-04-24 09:59 | 14.51668 | 121.01730 | 84 ft | 2 kts | 225° |
| 2026-04-24 09:59 | 14.51675 | 121.01738 | 84 ft | 2 kts | 224° |
| 2026-04-24 09:59 | 14.51687 | 121.01746 | 84 ft | 2 kts | 199° |
| 2026-04-24 09:59 | 14.51702 | 121.01749 | 84 ft | 2 kts | 180° |
| 2026-04-24 10:00 | 14.51717 | 121.01747 | 84 ft | 2 kts | 161° |
| 2026-04-24 10:00 | 14.51730 | 121.01740 | 84 ft | 2 kts | 142° |
| 2026-04-24 10:00 | 14.51736 | 121.01735 | 84 ft | 1 kts | 131° |
| 2026-04-24 10:00 | 14.51739 | 121.01732 | 84 ft | 0 kts | 133° |
| 2026-04-24 10:05 | 14.51736 | 121.01734 | 83 ft | 1 kts | 134° |
| 2026-04-24 10:05 | 14.51725 | 121.01746 | 83 ft | 3 kts | 135° |
| 2026-04-24 10:05 | 14.51700 | 121.01770 | 83 ft | 5 kts | 138° |
| 2026-04-24 10:05 | 14.51658 | 121.01788 | 83 ft | 8 kts | 178° |
| 2026-04-24 10:06 | 14.51606 | 121.01759 | 84 ft | 8 kts | 225° |
| 2026-04-24 10:06 | 14.51550 | 121.01701 | 83 ft | 8 kts | 225° |
| 2026-04-24 10:06 | 14.51508 | 121.01658 | 83 ft | 8 kts | 225° |
| 2026-04-24 10:07 | 14.51470 | 121.01616 | 83 ft | 7 kts | 236° |
| 2026-04-24 10:07 | 14.51484 | 121.01559 | 84 ft | 10 kts | 315° |
| 2026-04-24 10:07 | 14.51543 | 121.01498 | 84 ft | 13 kts | 315° |
| 2026-04-24 10:07 | 14.51614 | 121.01427 | 83 ft | 15 kts | 315° |
| 2026-04-24 10:08 | 14.51676 | 121.01362 | 84 ft | 16 kts | 315° |
| 2026-04-24 10:08 | 14.51705 | 121.01331 | 84 ft | 17 kts | 314° |
| 2026-04-24 10:08 | 14.51795 | 121.01239 | 83 ft | 19 kts | 315° |
| 2026-04-24 10:08 | 14.51893 | 121.01138 | 84 ft | 20 kts | 315° |
| 2026-04-24 10:09 | 14.51997 | 121.01031 | 83 ft | 21 kts | 315° |
| 2026-04-24 10:09 | 14.52106 | 121.00918 | 84 ft | 21 kts | 315° |
| 2026-04-24 10:09 | 14.52208 | 121.00812 | 84 ft | 20 kts | 315° |
| 2026-04-24 10:09 | 14.52303 | 121.00715 | 83 ft | 18 kts | 316° |
| 2026-04-24 10:10 | 14.52387 | 121.00626 | 83 ft | 16 kts | 316° |
| 2026-04-24 10:10 | 14.52464 | 121.00546 | 84 ft | 14 kts | 313° |
| 2026-04-24 10:10 | 14.52494 | 121.00487 | 83 ft | 9 kts | 263° |
| 2026-04-24 10:10 | 14.52472 | 121.00452 | 84 ft | 4 kts | 225° |
| 2026-04-24 10:11 | 14.52463 | 121.00443 | 84 ft | 0 kts | 226° |
| 2026-04-24 10:12 | 14.52460 | 121.00440 | 84 ft | 1 kts | 226° |
| 2026-04-24 10:12 | 14.52453 | 121.00432 | 83 ft | 1 kts | 225° |
| 2026-04-24 10:12 | 14.52442 | 121.00420 | 83 ft | 2 kts | 225° |
| 2026-04-24 10:13 | 14.52427 | 121.00405 | 84 ft | 3 kts | 225° |
| 2026-04-24 10:13 | 14.52402 | 121.00392 | 83 ft | 5 kts | 188° |
| 2026-04-24 10:13 | 14.52360 | 121.00409 | 84 ft | 7 kts | 136° |
| 2026-04-24 10:13 | 14.52321 | 121.00449 | 83 ft | 8 kts | 135° |
| 2026-04-24 10:14 | 14.52312 | 121.00459 | 83 ft | 0 kts | 135° |
| 2026-04-24 10:15 | 14.52261 | 121.00511 | 84 ft | 40 kts | 135° |
| 2026-04-24 10:15 | 14.51873 | 121.00912 | 84 ft | 113 kts | 135° |
| 2026-04-24 10:15 | 14.51178 | 121.01623 | 201 ft | 157 kts | 134° |
| 2026-04-24 10:15 | 14.50430 | 121.02396 | 894 ft | 153 kts | 136° |
| 2026-04-24 10:16 | 14.49690 | 121.03162 | 1560 ft | 155 kts | 135° |
| 2026-04-24 10:16 | 14.48932 | 121.03953 | 2080 ft | 158 kts | 135° |
| 2026-04-24 10:16 | 14.48128 | 121.04791 | 2357 ft | 174 kts | 136° |
| 2026-04-24 10:16 | 14.47212 | 121.05687 | 2672 ft | 190 kts | 146° |
| 2026-04-24 10:17 | 14.45916 | 121.06086 | 2974 ft | 204 kts | 179° |
| 2026-04-24 10:17 | 14.44444 | 121.06007 | 3321 ft | 220 kts | 185° |
| 2026-04-24 10:17 | 14.42856 | 121.05863 | 3598 ft | 241 kts | 184° |
| 2026-04-24 10:17 | 14.41299 | 121.05746 | 4047 ft | 252 kts | 183° |
| 2026-04-24 10:18 | 14.39381 | 121.05643 | 4566 ft | 266 kts | 182° |
| 2026-04-24 10:18 | 14.37542 | 121.05565 | 5318 ft | 268 kts | 182° |
| 2026-04-24 10:18 | 14.35671 | 121.05499 | 6087 ft | 271 kts | 182° |
| 2026-04-24 10:18 | 14.33781 | 121.05437 | 6836 ft | 273 kts | 182° |
| 2026-04-24 10:19 | 14.31884 | 121.05383 | 7563 ft | 277 kts | 183° |
| 2026-04-24 10:19 | 14.29958 | 121.05330 | 8240 ft | 281 kts | 184° |
| 2026-04-24 10:19 | 14.27992 | 121.05273 | 8895 ft | 287 kts | 184° |
| 2026-04-24 10:19 | 14.26012 | 121.05216 | 9562 ft | 291 kts | 184° |
| 2026-04-24 10:20 | 14.23963 | 121.05157 | 10209 ft | 296 kts | 184° |
| 2026-04-24 10:20 | 14.21889 | 121.05098 | 10617 ft | 309 kts | 184° |
| 2026-04-24 10:20 | 14.19677 | 121.05034 | 10912 ft | 326 kts | 184° |
| 2026-04-24 10:20 | 14.17378 | 121.04968 | 11198 ft | 342 kts | 184° |
| 2026-04-24 10:21 | 14.14930 | 121.04899 | 11474 ft | 358 kts | 184° |
| 2026-04-24 10:21 | 14.12422 | 121.04829 | 11737 ft | 372 kts | 184° |
| 2026-04-24 10:21 | 14.09773 | 121.04756 | 12084 ft | 383 kts | 183° |
| 2026-04-24 10:21 | 14.07108 | 121.04684 | 12632 ft | 388 kts | 183° |
| 2026-04-24 10:22 | 14.04419 | 121.04612 | 13217 ft | 391 kts | 183° |
| 2026-04-24 10:22 | 14.01700 | 121.04539 | 13784 ft | 395 kts | 183° |
| 2026-04-24 10:22 | 13.98920 | 121.04464 | 14343 ft | 399 kts | 183° |
| 2026-04-24 10:22 | 13.96166 | 121.04390 | 14888 ft | 402 kts | 183° |
| 2026-04-24 10:23 | 13.93376 | 121.04314 | 15431 ft | 406 kts | 182° |
| 2026-04-24 10:23 | 13.90556 | 121.04239 | 15968 ft | 409 kts | 182° |
| 2026-04-24 10:23 | 13.87697 | 121.04162 | 16497 ft | 412 kts | 182° |
| 2026-04-24 10:23 | 13.84785 | 121.04084 | 17024 ft | 416 kts | 182° |
| 2026-04-24 10:24 | 13.81930 | 121.04007 | 17530 ft | 419 kts | 182° |
| 2026-04-24 10:24 | 13.78990 | 121.03928 | 18038 ft | 422 kts | 182° |
| 2026-04-24 10:24 | 13.76079 | 121.03851 | 18531 ft | 425 kts | 182° |
| 2026-04-24 10:24 | 13.73097 | 121.03771 | 19028 ft | 428 kts | 182° |
| 2026-04-24 10:25 | 13.70148 | 121.03693 | 19508 ft | 431 kts | 182° |
| 2026-04-24 10:25 | 13.67156 | 121.03613 | 19991 ft | 434 kts | 181° |
| 2026-04-24 10:25 | 13.64142 | 121.03535 | 20734 ft | 429 kts | 181° |
| 2026-04-24 10:25 | 13.61231 | 121.03464 | 21542 ft | 423 kts | 181° |
| 2026-04-24 10:26 | 13.58286 | 121.03387 | 22012 ft | 426 kts | 181° |
| 2026-04-24 10:26 | 13.55287 | 121.03309 | 22194 ft | 439 kts | 181° |
| 2026-04-24 10:26 | 13.52213 | 121.03511 | 22350 ft | 448 kts | 170° |
| 2026-04-24 10:26 | 13.49200 | 121.04373 | 22505 ft | 456 kts | 158° |
| 2026-04-24 10:27 | 13.46367 | 121.05901 | 22658 ft | 464 kts | 147° |
| 2026-04-24 10:27 | 13.43706 | 121.07747 | 22876 ft | 469 kts | 145° |
| 2026-04-24 10:27 | 13.41034 | 121.09681 | 22990 ft | 472 kts | 144° |
| 2026-04-24 10:27 | 13.38317 | 121.11637 | 22995 ft | 478 kts | 145° |
| 2026-04-24 10:28 | 13.35586 | 121.13578 | 22997 ft | 479 kts | 145° |
| 2026-04-24 10:28 | 13.32859 | 121.15498 | 22998 ft | 479 kts | 146° |
| 2026-04-24 10:28 | 13.30094 | 121.17439 | 22998 ft | 479 kts | 146° |
| 2026-04-24 10:28 | 13.27327 | 121.19378 | 22999 ft | 479 kts | 146° |
| 2026-04-24 10:29 | 13.24594 | 121.21294 | 22999 ft | 479 kts | 146° |
| 2026-04-24 10:29 | 13.21860 | 121.23210 | 22999 ft | 479 kts | 146° |
| 2026-04-24 10:29 | 13.19092 | 121.25150 | 22999 ft | 479 kts | 146° |
| 2026-04-24 10:29 | 13.18389 | 121.25642 | 22999 ft | 479 kts | 146° |
| 2026-04-24 10:30 | 13.15667 | 121.27560 | 22987 ft | 482 kts | 147° |
| 2026-04-24 10:30 | 13.12855 | 121.29527 | 22962 ft | 484 kts | 147° |
| 2026-04-24 10:30 | 13.10074 | 121.31466 | 22937 ft | 485 kts | 147° |
| 2026-04-24 10:30 | 13.07263 | 121.33426 | 22916 ft | 485 kts | 147° |
| 2026-04-24 10:31 | 13.04500 | 121.35355 | 22903 ft | 486 kts | 147° |
| 2026-04-24 10:31 | 13.01701 | 121.37306 | 22897 ft | 485 kts | 147° |
| 2026-04-24 10:31 | 12.98891 | 121.39275 | 22897 ft | 486 kts | 147° |
| 2026-04-24 10:31 | 12.96133 | 121.41205 | 22894 ft | 486 kts | 147° |
| 2026-04-24 10:32 | 12.93341 | 121.43157 | 22890 ft | 486 kts | 147° |
| 2026-04-24 10:32 | 12.90547 | 121.45110 | 22888 ft | 487 kts | 147° |
| 2026-04-24 10:32 | 12.87726 | 121.47081 | 22780 ft | 487 kts | 147° |
| 2026-04-24 10:32 | 12.84888 | 121.49065 | 22330 ft | 482 kts | 147° |
| 2026-04-24 10:33 | 12.81976 | 121.51099 | 21530 ft | 476 kts | 147° |
| 2026-04-24 10:33 | 12.79181 | 121.53052 | 20867 ft | 468 kts | 147° |
| 2026-04-24 10:33 | 12.76716 | 121.54775 | 20292 ft | 460 kts | 147° |
| 2026-04-24 10:33 | 12.74057 | 121.56631 | 19681 ft | 453 kts | 147° |
| 2026-04-24 10:34 | 12.71480 | 121.58431 | 19102 ft | 435 kts | 147° |
| 2026-04-24 10:34 | 12.68993 | 121.60169 | 18275 ft | 419 kts | 147° |
| 2026-04-24 10:34 | 12.66603 | 121.61836 | 17642 ft | 405 kts | 147° |
| 2026-04-24 10:34 | 12.64292 | 121.63448 | 17073 ft | 396 kts | 147° |
| 2026-04-24 10:35 | 12.62033 | 121.65023 | 16531 ft | 389 kts | 147° |
| 2026-04-24 10:35 | 12.59774 | 121.66597 | 15989 ft | 385 kts | 147° |
| 2026-04-24 10:35 | 12.57631 | 121.68089 | 15464 ft | 385 kts | 147° |
| 2026-04-24 10:35 | 12.55418 | 121.69631 | 14944 ft | 384 kts | 147° |
| 2026-04-24 10:36 | 12.53208 | 121.71170 | 14416 ft | 383 kts | 147° |
| 2026-04-24 10:36 | 12.51013 | 121.72699 | 13892 ft | 382 kts | 147° |
| 2026-04-24 10:36 | 12.48830 | 121.74219 | 13365 ft | 381 kts | 147° |
| 2026-04-24 10:36 | 12.46636 | 121.75748 | 12833 ft | 380 kts | 147° |
| 2026-04-24 10:37 | 12.44460 | 121.77263 | 12303 ft | 379 kts | 147° |
| 2026-04-24 10:37 | 12.42281 | 121.78779 | 11766 ft | 378 kts | 147° |
| 2026-04-24 10:37 | 12.40127 | 121.80276 | 11242 ft | 376 kts | 147° |
| 2026-04-24 10:37 | 12.37951 | 121.81677 | 10906 ft | 366 kts | 156° |
| 2026-04-24 10:38 | 12.35557 | 121.82323 | 10681 ft | 349 kts | 179° |
| 2026-04-24 10:38 | 12.33217 | 121.82114 | 10521 ft | 333 kts | 193° |
| 2026-04-24 10:38 | 12.30987 | 121.81628 | 10358 ft | 321 kts | 195° |
| 2026-04-24 10:38 | 12.28840 | 121.81130 | 10210 ft | 310 kts | 195° |
| 2026-04-24 10:39 | 12.26783 | 121.80658 | 10079 ft | 298 kts | 195° |
| 2026-04-24 10:39 | 12.24772 | 121.80205 | 9874 ft | 292 kts | 195° |
| 2026-04-24 10:39 | 12.22757 | 121.79757 | 9493 ft | 291 kts | 194° |
| 2026-04-24 10:39 | 12.20792 | 121.79324 | 9138 ft | 291 kts | 194° |
| 2026-04-24 10:40 | 12.18837 | 121.78897 | 8795 ft | 290 kts | 194° |
| 2026-04-24 10:40 | 12.16870 | 121.78468 | 8453 ft | 288 kts | 193° |
| 2026-04-24 10:40 | 12.14908 | 121.78043 | 8119 ft | 287 kts | 194° |
| 2026-04-24 10:40 | 12.12969 | 121.77623 | 7788 ft | 286 kts | 193° |
| 2026-04-24 10:41 | 12.11018 | 121.77200 | 7462 ft | 284 kts | 193° |
| 2026-04-24 10:41 | 12.09076 | 121.76781 | 7137 ft | 282 kts | 193° |
| 2026-04-24 10:41 | 12.07189 | 121.76372 | 6821 ft | 279 kts | 193° |
| 2026-04-24 10:41 | 12.05292 | 121.75961 | 6508 ft | 276 kts | 192° |
| 2026-04-24 10:42 | 12.03416 | 121.75558 | 6199 ft | 273 kts | 193° |
| 2026-04-24 10:42 | 12.01567 | 121.75157 | 5893 ft | 270 kts | 192° |
| 2026-04-24 10:42 | 11.99739 | 121.74760 | 5601 ft | 267 kts | 192° |
| 2026-04-24 10:42 | 11.97921 | 121.74370 | 5298 ft | 264 kts | 192° |
| 2026-04-24 10:43 | 11.96127 | 121.73983 | 4992 ft | 262 kts | 192° |
| 2026-04-24 10:43 | 11.94339 | 121.73597 | 4679 ft | 260 kts | 191° |
| 2026-04-24 10:43 | 11.92594 | 121.73223 | 4381 ft | 258 kts | 189° |
| 2026-04-24 10:43 | 11.90809 | 121.73200 | 4100 ft | 252 kts | 166° |
| 2026-04-24 10:44 | 11.89188 | 121.73816 | 4085 ft | 240 kts | 152° |
| 2026-04-24 10:44 | 11.87670 | 121.74617 | 4059 ft | 224 kts | 150° |
| 2026-04-24 10:44 | 11.86249 | 121.75390 | 4035 ft | 222 kts | 150° |
| 2026-04-24 10:44 | 11.84886 | 121.76127 | 4084 ft | 210 kts | 148° |
| 2026-04-24 10:45 | 11.83907 | 121.77157 | 3858 ft | 194 kts | 108° |
| 2026-04-24 10:45 | 11.83865 | 121.78451 | 3614 ft | 180 kts | 69° |
| 2026-04-24 10:45 | 11.84353 | 121.79518 | 3392 ft | 165 kts | 59° |
| 2026-04-24 10:45 | 11.84899 | 121.80523 | 3184 ft | 156 kts | 60° |
| 2026-04-24 10:46 | 11.85429 | 121.81510 | 2976 ft | 149 kts | 60° |
| 2026-04-24 10:46 | 11.85914 | 121.82443 | 2753 ft | 147 kts | 59° |
| 2026-04-24 10:46 | 11.86393 | 121.83369 | 2566 ft | 146 kts | 60° |
| 2026-04-24 10:46 | 11.86863 | 121.84288 | 2364 ft | 146 kts | 60° |
| 2026-04-24 10:47 | 11.87325 | 121.85199 | 2145 ft | 145 kts | 60° |
| 2026-04-24 10:47 | 11.87787 | 121.86113 | 1949 ft | 144 kts | 60° |
| 2026-04-24 10:47 | 11.88257 | 121.87045 | 1751 ft | 144 kts | 60° |
| 2026-04-24 10:47 | 11.88712 | 121.87951 | 1559 ft | 143 kts | 60° |
| 2026-04-24 10:48 | 11.89168 | 121.88858 | 1370 ft | 143 kts | 60° |
| 2026-04-24 10:48 | 11.89617 | 121.89753 | 1183 ft | 142 kts | 61° |
| 2026-04-24 10:48 | 11.90071 | 121.90656 | 1000 ft | 142 kts | 61° |
| 2026-04-24 10:48 | 11.90520 | 121.91549 | 799 ft | 141 kts | 61° |
| 2026-04-24 10:49 | 11.90970 | 121.92447 | 597 ft | 141 kts | 61° |
| 2026-04-24 10:49 | 11.91410 | 121.93323 | 416 ft | 140 kts | 61° |
| 2026-04-24 10:49 | 11.91864 | 121.94215 | 244 ft | 140 kts | 60° |
| 2026-04-24 10:49 | 11.92305 | 121.95090 | 44 ft | 139 kts | 62° |
| 2026-04-24 10:50 | 11.92682 | 121.95844 | 47 ft | 80 kts | 63° |
| 2026-04-24 10:50 | 11.92812 | 121.96106 | 58 ft | 21 kts | 62° |
| 2026-04-24 10:50 | 11.92876 | 121.96231 | 63 ft | 17 kts | 61° |
| 2026-04-24 10:50 | 11.92928 | 121.96336 | 66 ft | 15 kts | 63° |
| 2026-04-24 10:51 | 11.92964 | 121.96408 | 67 ft | 7 kts | 62° |
| 2026-04-24 10:51 | 11.92956 | 121.96455 | 67 ft | 8 kts | 143° |
| 2026-04-24 10:51 | 11.92902 | 121.96483 | 66 ft | 9 kts | 153° |
| 2026-04-24 10:51 | 11.92841 | 121.96514 | 65 ft | 8 kts | 153° |
| 2026-04-24 10:52 | 11.92787 | 121.96513 | 64 ft | 7 kts | 228° |
| 2026-04-24 10:52 | 11.92758 | 121.96456 | 63 ft | 10 kts | 243° |
| 2026-04-24 10:52 | 11.92728 | 121.96398 | 63 ft | 6 kts | 242° |
| 2026-04-24 10:52 | 11.92709 | 121.96381 | 62 ft | 2 kts | 183° |
| 2026-04-24 10:53 | 11.92681 | 121.96391 | 62 ft | 5 kts | 153° |
| 2026-04-24 10:53 | 11.92665 | 121.96400 | 62 ft | 0 kts | 152° |
| 2026-04-24 10:53 | 11.92664 | 121.96401 | 62 ft | 0 kts | 152° |